sensor_id;sensor_type;location;lat;lon;timestamp;P1;P2;P0
27143;PMS1003;14672;50.250;8.312;2022-07-21T00:00:45;60.00;51.25;31.00
27143;PMS1003;14672;50.250;8.312;2022-07-21T00:03:11;61.25;50.75;30.25
27143;PMS1003;14672;50.250;8.312;2022-07-21T00:05:37;58.75;47.50;30.25
27143;PMS1003;14672;50.250;8.312;2022-07-21T00:08:03;56.20;48.40;29.60
27143;PMS1003;14672;50.250;8.312;2022-07-21T00:10:29;61.40;50.40;29.60
27143;PMS1003;14672;50.250;8.312;2022-07-21T00:12:56;58.50;50.25;30.00
27143;PMS1003;14672;50.250;8.312;2022-07-21T00:15:23;54.80;47.60;28.80
27143;PMS1003;14672;50.250;8.312;2022-07-21T00:17:51;57.80;49.20;29.20
27143;PMS1003;14672;50.250;8.312;2022-07-21T00:20:19;54.40;46.00;28.20
27143;PMS1003;14672;50.250;8.312;2022-07-21T00:22:45;55.00;47.60;29.00
27143;PMS1003;14672;50.250;8.312;2022-07-21T00:25:12;51.40;46.60;29.40
27143;PMS1003;14672;50.250;8.312;2022-07-21T00:27:40;54.40;47.00;27.60
27143;PMS1003;14672;50.250;8.312;2022-07-21T00:30:07;55.40;46.20;26.60
27143;PMS1003;14672;50.250;8.312;2022-07-21T00:32:34;54.40;46.00;28.60
27143;PMS1003;14672;50.250;8.312;2022-07-21T00:35:00;58.20;48.20;28.20
27143;PMS1003;14672;50.250;8.312;2022-07-21T00:37:27;48.60;43.40;27.40
27143;PMS1003;14672;50.250;8.312;2022-07-21T00:39:53;51.25;46.00;26.25
27143;PMS1003;14672;50.250;8.312;2022-07-21T00:42:22;48.80;44.60;26.60
27143;PMS1003;14672;50.250;8.312;2022-07-21T00:44:50;49.00;42.60;26.00
27143;PMS1003;14672;50.250;8.312;2022-07-21T00:47:19;53.00;44.75;28.00
27143;PMS1003;14672;50.250;8.312;2022-07-21T00:49:49;54.20;46.00;26.60
27143;PMS1003;14672;50.250;8.312;2022-07-21T00:52:16;54.20;48.40;30.00
27143;PMS1003;14672;50.250;8.312;2022-07-21T00:54:42;57.60;47.40;29.00
27143;PMS1003;14672;50.250;8.312;2022-07-21T00:57:09;50.40;44.60;26.60
27143;PMS1003;14672;50.250;8.312;2022-07-21T00:59:37;50.60;44.20;25.80
27143;PMS1003;14672;50.250;8.312;2022-07-21T01:02:03;40.60;39.20;23.20
27143;PMS1003;14672;50.250;8.312;2022-07-21T01:04:29;33.20;33.20;20.40
27143;PMS1003;14672;50.250;8.312;2022-07-21T01:06:55;35.20;34.60;20.00
27143;PMS1003;14672;50.250;8.312;2022-07-21T01:09:25;32.80;32.00;18.80
27143;PMS1003;14672;50.250;8.312;2022-07-21T01:11:51;29.00;28.00;16.80
27143;PMS1003;14672;50.250;8.312;2022-07-21T01:14:17;28.50;27.75;16.00
27143;PMS1003;14672;50.250;8.312;2022-07-21T01:16:43;29.20;28.80;17.00
27143;PMS1003;14672;50.250;8.312;2022-07-21T01:19:09;33.25;30.00;15.50
27143;PMS1003;14672;50.250;8.312;2022-07-21T01:21:37;30.25;29.50;15.25
27143;PMS1003;14672;50.250;8.312;2022-07-21T01:24:06;29.50;26.75;13.00
27143;PMS1003;14672;50.250;8.312;2022-07-21T01:26:43;28.60;28.20;17.00
27143;PMS1003;14672;50.250;8.312;2022-07-21T01:29:11;31.60;29.60;15.00
27143;PMS1003;14672;50.250;8.312;2022-07-21T01:31:38;27.75;24.75;13.50
27143;PMS1003;14672;50.250;8.312;2022-07-21T01:34:06;26.00;25.75;15.25
27143;PMS1003;14672;50.250;8.312;2022-07-21T01:36:33;29.00;28.00;13.00
27143;PMS1003;14672;50.250;8.312;2022-07-21T01:38:58;24.33;24.33;14.00
27143;PMS1003;14672;50.250;8.312;2022-07-21T01:41:44;28.25;28.00;14.00
27143;PMS1003;14672;50.250;8.312;2022-07-21T01:44:11;27.50;24.50;12.75
27143;PMS1003;14672;50.250;8.312;2022-07-21T01:46:39;26.40;25.40;12.40
27143;PMS1003;14672;50.250;8.312;2022-07-21T01:49:09;27.25;24.00;13.75
27143;PMS1003;14672;50.250;8.312;2022-07-21T01:51:37;27.50;27.00;14.75
27143;PMS1003;14672;50.250;8.312;2022-07-21T01:54:04;25.25;24.00;12.00
27143;PMS1003;14672;50.250;8.312;2022-07-21T01:56:32;22.75;22.00;12.00
27143;PMS1003;14672;50.250;8.312;2022-07-21T01:58:59;25.00;24.75;13.75
27143;PMS1003;14672;50.250;8.312;2022-07-21T02:01:26;22.00;22.00;11.00
27143;PMS1003;14672;50.250;8.312;2022-07-21T02:03:56;21.75;19.50;11.00
27143;PMS1003;14672;50.250;8.312;2022-07-21T02:06:25;26.00;23.75;14.00
27143;PMS1003;14672;50.250;8.312;2022-07-21T02:08:52;24.50;22.25;12.25
27143;PMS1003;14672;50.250;8.312;2022-07-21T02:11:18;26.50;22.25;11.75
27143;PMS1003;14672;50.250;8.312;2022-07-21T02:13:44;21.00;20.50;10.50
27143;PMS1003;14672;50.250;8.312;2022-07-21T02:16:12;23.25;21.75;10.50
27143;PMS1003;14672;50.250;8.312;2022-07-21T02:18:38;24.25;23.75;10.25
27143;PMS1003;14672;50.250;8.312;2022-07-21T02:21:04;25.75;22.75;11.00
27143;PMS1003;14672;50.250;8.312;2022-07-21T02:23:31;18.25;18.25;10.50
27143;PMS1003;14672;50.250;8.312;2022-07-21T02:25:57;23.25;19.25;9.75
27143;PMS1003;14672;50.250;8.312;2022-07-21T02:28:24;22.50;20.50;11.75
27143;PMS1003;14672;50.250;8.312;2022-07-21T02:30:51;23.00;22.75;10.75
27143;PMS1003;14672;50.250;8.312;2022-07-21T02:33:18;23.25;21.50;11.00
27143;PMS1003;14672;50.250;8.312;2022-07-21T02:35:44;22.33;20.67;12.00
27143;PMS1003;14672;50.250;8.312;2022-07-21T02:38:10;26.00;24.67;11.33
27143;PMS1003;14672;50.250;8.312;2022-07-21T02:40:38;19.25;19.25;11.00
27143;PMS1003;14672;50.250;8.312;2022-07-21T02:43:04;18.50;18.50;10.50
27143;PMS1003;14672;50.250;8.312;2022-07-21T02:45:31;23.25;21.00;11.75
27143;PMS1003;14672;50.250;8.312;2022-07-21T02:48:00;20.50;20.50;11.75
27143;PMS1003;14672;50.250;8.312;2022-07-21T02:50:35;22.00;20.75;12.50
27143;PMS1003;14672;50.250;8.312;2022-07-21T02:53:06;26.50;22.25;11.00
27143;PMS1003;14672;50.250;8.312;2022-07-21T02:55:37;19.75;19.75;11.00
27143;PMS1003;14672;50.250;8.312;2022-07-21T03:00:44;23.50;22.50;10.00
27143;PMS1003;14672;50.250;8.312;2022-07-21T03:03:15;21.25;21.00;10.25
27143;PMS1003;14672;50.250;8.312;2022-07-21T03:05:42;19.50;18.75;10.25
27143;PMS1003;14672;50.250;8.312;2022-07-21T03:08:08;18.75;18.75;9.00
27143;PMS1003;14672;50.250;8.312;2022-07-21T03:10:36;25.00;22.00;12.00
27143;PMS1003;14672;50.250;8.312;2022-07-21T03:13:03;20.00;19.75;10.00
27143;PMS1003;14672;50.250;8.312;2022-07-21T03:15:30;24.25;21.25;10.25
27143;PMS1003;14672;50.250;8.312;2022-07-21T03:17:56;17.50;17.50;9.25
27143;PMS1003;14672;50.250;8.312;2022-07-21T03:20:23;18.25;18.25;10.25
27143;PMS1003;14672;50.250;8.312;2022-07-21T03:22:53;19.50;19.50;11.75
27143;PMS1003;14672;50.250;8.312;2022-07-21T03:25:19;20.25;19.75;11.50
27143;PMS1003;14672;50.250;8.312;2022-07-21T03:27:45;21.75;21.00;9.50
27143;PMS1003;14672;50.250;8.312;2022-07-21T03:30:13;23.25;21.50;10.75
27143;PMS1003;14672;50.250;8.312;2022-07-21T03:32:39;18.50;18.00;9.75
27143;PMS1003;14672;50.250;8.312;2022-07-21T03:35:06;18.50;17.50;8.50
27143;PMS1003;14672;50.250;8.312;2022-07-21T03:37:45;19.75;19.75;11.25
27143;PMS1003;14672;50.250;8.312;2022-07-21T03:40:20;19.00;18.50;8.00
27143;PMS1003;14672;50.250;8.312;2022-07-21T03:42:49;21.75;20.50;11.00
27143;PMS1003;14672;50.250;8.312;2022-07-21T03:45:17;21.00;20.00;9.25
27143;PMS1003;14672;50.250;8.312;2022-07-21T03:47:43;19.33;19.33;9.00
27143;PMS1003;14672;50.250;8.312;2022-07-21T03:50:09;27.00;24.67;10.00
27143;PMS1003;14672;50.250;8.312;2022-07-21T03:52:37;18.25;18.00;10.50
27143;PMS1003;14672;50.250;8.312;2022-07-21T03:55:03;19.75;19.00;11.00
27143;PMS1003;14672;50.250;8.312;2022-07-21T03:57:41;20.00;19.75;9.00
27143;PMS1003;14672;50.250;8.312;2022-07-21T04:00:26;19.75;18.50;8.50
27143;PMS1003;14672;50.250;8.312;2022-07-21T04:02:56;24.75;20.75;9.25
27143;PMS1003;14672;50.250;8.312;2022-07-21T04:05:23;23.75;21.50;12.50
27143;PMS1003;14672;50.250;8.312;2022-07-21T04:07:51;17.25;16.50;8.00
27143;PMS1003;14672;50.250;8.312;2022-07-21T04:10:20;23.25;22.00;9.25
27143;PMS1003;14672;50.250;8.312;2022-07-21T04:12:49;21.75;21.50;10.25
27143;PMS1003;14672;50.250;8.312;2022-07-21T04:15:16;24.00;21.50;10.00
27143;PMS1003;14672;50.250;8.312;2022-07-21T04:17:43;19.00;18.25;9.25
27143;PMS1003;14672;50.250;8.312;2022-07-21T04:20:10;20.75;20.75;10.50
27143;PMS1003;14672;50.250;8.312;2022-07-21T04:22:39;19.25;19.25;10.25
27143;PMS1003;14672;50.250;8.312;2022-07-21T04:25:06;19.00;17.75;11.00
27143;PMS1003;14672;50.250;8.312;2022-07-21T04:27:33;20.25;20.25;9.50
27143;PMS1003;14672;50.250;8.312;2022-07-21T04:30:00;19.50;19.00;9.75
27143;PMS1003;14672;50.250;8.312;2022-07-21T04:32:27;19.25;17.00;10.00
27143;PMS1003;14672;50.250;8.312;2022-07-21T04:34:53;19.67;17.67;10.00
27143;PMS1003;14672;50.250;8.312;2022-07-21T04:37:19;21.67;20.67;11.00
27143;PMS1003;14672;50.250;8.312;2022-07-21T04:39:47;18.50;18.50;9.25
27143;PMS1003;14672;50.250;8.312;2022-07-21T04:42:13;21.25;19.75;9.50
27143;PMS1003;14672;50.250;8.312;2022-07-21T04:44:39;16.00;16.00;11.00
27143;PMS1003;14672;50.250;8.312;2022-07-21T04:47:05;22.67;20.67;8.67
27143;PMS1003;14672;50.250;8.312;2022-07-21T04:49:31;20.75;19.50;10.00
27143;PMS1003;14672;50.250;8.312;2022-07-21T04:51:57;20.00;18.00;8.00
27143;PMS1003;14672;50.250;8.312;2022-07-21T04:54:23;16.33;16.33;7.00
27143;PMS1003;14672;50.250;8.312;2022-07-21T04:56:49;19.25;18.00;9.25
27143;PMS1003;14672;50.250;8.312;2022-07-21T04:59:15;16.00;16.00;9.00
27143;PMS1003;14672;50.250;8.312;2022-07-21T05:01:41;20.00;19.33;8.67
27143;PMS1003;14672;50.250;8.312;2022-07-21T05:04:06;17.33;16.00;8.00
27143;PMS1003;14672;50.250;8.312;2022-07-21T05:06:33;20.00;19.00;8.75
27143;PMS1003;14672;50.250;8.312;2022-07-21T05:08:59;18.75;18.75;11.50
27143;PMS1003;14672;50.250;8.312;2022-07-21T05:11:25;18.00;17.50;8.00
27143;PMS1003;14672;50.250;8.312;2022-07-21T05:13:51;20.67;19.00;10.00
27143;PMS1003;14672;50.250;8.312;2022-07-21T05:16:17;18.00;18.00;9.00
27143;PMS1003;14672;50.250;8.312;2022-07-21T05:18:43;20.33;20.00;10.00
27143;PMS1003;14672;50.250;8.312;2022-07-21T05:21:09;20.00;18.25;8.00
27143;PMS1003;14672;50.250;8.312;2022-07-21T05:23:35;22.00;22.00;11.00
27143;PMS1003;14672;50.250;8.312;2022-07-21T05:26:01;19.67;18.67;9.00
27143;PMS1003;14672;50.250;8.312;2022-07-21T05:28:28;20.50;18.00;9.25
27143;PMS1003;14672;50.250;8.312;2022-07-21T05:30:54;24.50;20.50;10.00
27143;PMS1003;14672;50.250;8.312;2022-07-21T05:33:20;18.25;18.25;9.75
27143;PMS1003;14672;50.250;8.312;2022-07-21T05:35:46;17.67;17.00;8.00
27143;PMS1003;14672;50.250;8.312;2022-07-21T05:38:12;20.25;19.75;10.25
27143;PMS1003;14672;50.250;8.312;2022-07-21T05:40:39;20.00;18.50;10.50
27143;PMS1003;14672;50.250;8.312;2022-07-21T05:43:05;20.25;18.25;9.25
27143;PMS1003;14672;50.250;8.312;2022-07-21T05:45:31;20.00;19.25;8.25
27143;PMS1003;14672;50.250;8.312;2022-07-21T05:47:57;23.33;21.00;9.00
27143;PMS1003;14672;50.250;8.312;2022-07-21T05:50:23;24.00;23.00;11.00
27143;PMS1003;14672;50.250;8.312;2022-07-21T05:52:49;25.00;21.00;11.00
27143;PMS1003;14672;50.250;8.312;2022-07-21T05:55:15;21.25;20.25;10.00
27143;PMS1003;14672;50.250;8.312;2022-07-21T05:57:41;20.00;20.00;11.00
27143;PMS1003;14672;50.250;8.312;2022-07-21T06:00:07;25.33;20.00;11.00
27143;PMS1003;14672;50.250;8.312;2022-07-21T06:02:34;20.00;20.00;10.75
27143;PMS1003;14672;50.250;8.312;2022-07-21T06:05:00;20.75;18.50;11.00
27143;PMS1003;14672;50.250;8.312;2022-07-21T06:07:26;22.00;22.00;11.67
27143;PMS1003;14672;50.250;8.312;2022-07-21T06:09:51;18.67;18.67;9.67
27143;PMS1003;14672;50.250;8.312;2022-07-21T06:12:18;22.00;22.00;10.75
27143;PMS1003;14672;50.250;8.312;2022-07-21T06:14:43;20.67;20.00;11.33
27143;PMS1003;14672;50.250;8.312;2022-07-21T06:17:09;19.00;19.00;11.75
27143;PMS1003;14672;50.250;8.312;2022-07-21T06:19:35;18.33;18.00;10.67
27143;PMS1003;14672;50.250;8.312;2022-07-21T06:22:01;24.00;22.33;12.00
27143;PMS1003;14672;50.250;8.312;2022-07-21T06:24:28;25.50;22.50;13.00
27143;PMS1003;14672;50.250;8.312;2022-07-21T06:26:54;25.25;25.00;12.75
27143;PMS1003;14672;50.250;8.312;2022-07-21T06:29:24;24.75;22.25;14.25
27143;PMS1003;14672;50.250;8.312;2022-07-21T06:31:50;23.50;22.00;13.50
27143;PMS1003;14672;50.250;8.312;2022-07-21T06:34:16;25.00;24.00;14.00
27143;PMS1003;14672;50.250;8.312;2022-07-21T06:36:42;24.00;21.67;11.00
27143;PMS1003;14672;50.250;8.312;2022-07-21T06:39:08;25.00;24.75;14.00
27143;PMS1003;14672;50.250;8.312;2022-07-21T06:41:37;23.75;22.25;12.00
27143;PMS1003;14672;50.250;8.312;2022-07-21T06:44:04;25.00;23.00;13.00
27143;PMS1003;14672;50.250;8.312;2022-07-21T06:46:31;26.50;24.75;12.00
27143;PMS1003;14672;50.250;8.312;2022-07-21T06:48:59;24.50;23.75;13.75
27143;PMS1003;14672;50.250;8.312;2022-07-21T06:51:26;26.00;25.50;13.50
27143;PMS1003;14672;50.250;8.312;2022-07-21T06:53:52;29.50;27.75;14.00
27143;PMS1003;14672;50.250;8.312;2022-07-21T06:56:19;21.75;21.75;12.25
27143;PMS1003;14672;50.250;8.312;2022-07-21T06:58:45;21.50;20.25;11.25
27143;PMS1003;14672;50.250;8.312;2022-07-21T07:01:12;24.25;24.00;13.25
27143;PMS1003;14672;50.250;8.312;2022-07-21T07:03:41;27.25;23.25;13.50
27143;PMS1003;14672;50.250;8.312;2022-07-21T07:06:11;26.00;24.00;14.00
27143;PMS1003;14672;50.250;8.312;2022-07-21T07:08:37;24.50;23.00;13.50
27143;PMS1003;14672;50.250;8.312;2022-07-21T07:11:04;24.00;22.25;11.50
27143;PMS1003;14672;50.250;8.312;2022-07-21T07:13:31;23.00;21.00;11.50
27143;PMS1003;14672;50.250;8.312;2022-07-21T07:15:57;22.50;22.50;12.00
27143;PMS1003;14672;50.250;8.312;2022-07-21T07:18:22;21.33;21.33;11.67
27143;PMS1003;14672;50.250;8.312;2022-07-21T07:20:49;21.50;20.25;10.00
27143;PMS1003;14672;50.250;8.312;2022-07-21T07:23:16;24.25;21.75;12.00
27143;PMS1003;14672;50.250;8.312;2022-07-21T07:25:42;19.25;19.25;11.00
27143;PMS1003;14672;50.250;8.312;2022-07-21T07:28:08;20.67;19.33;9.00
27143;PMS1003;14672;50.250;8.312;2022-07-21T07:30:34;21.33;20.67;9.33
27143;PMS1003;14672;50.250;8.312;2022-07-21T07:33:00;21.50;20.50;9.75
27143;PMS1003;14672;50.250;8.312;2022-07-21T07:35:26;22.00;21.50;11.50
27143;PMS1003;14672;50.250;8.312;2022-07-21T07:37:52;24.25;23.25;10.00
27143;PMS1003;14672;50.250;8.312;2022-07-21T07:40:21;17.67;17.33;9.00
27143;PMS1003;14672;50.250;8.312;2022-07-21T07:42:48;20.00;20.00;10.75
27143;PMS1003;14672;50.250;8.312;2022-07-21T07:45:14;22.50;20.00;10.50
27143;PMS1003;14672;50.250;8.312;2022-07-21T07:47:41;22.00;20.75;10.75
27143;PMS1003;14672;50.250;8.312;2022-07-21T07:50:09;21.25;21.25;11.50
27143;PMS1003;14672;50.250;8.312;2022-07-21T07:52:38;20.50;20.50;11.00
27143;PMS1003;14672;50.250;8.312;2022-07-21T07:55:05;17.00;17.00;10.50
27143;PMS1003;14672;50.250;8.312;2022-07-21T07:57:35;24.00;23.25;11.50
27143;PMS1003;14672;50.250;8.312;2022-07-21T08:00:04;21.00;21.00;11.00
27143;PMS1003;14672;50.250;8.312;2022-07-21T08:02:34;20.25;20.00;9.75
27143;PMS1003;14672;50.250;8.312;2022-07-21T08:05:00;20.25;20.25;10.75
27143;PMS1003;14672;50.250;8.312;2022-07-21T08:07:27;18.50;18.50;9.50
27143;PMS1003;14672;50.250;8.312;2022-07-21T08:09:52;21.00;19.33;10.00
27143;PMS1003;14672;50.250;8.312;2022-07-21T08:12:18;19.00;19.00;10.00
27143;PMS1003;14672;50.250;8.312;2022-07-21T08:14:44;17.00;17.00;9.00
27143;PMS1003;14672;50.250;8.312;2022-07-21T08:17:10;21.00;19.33;10.33
27143;PMS1003;14672;50.250;8.312;2022-07-21T08:19:36;19.67;17.33;11.00
27143;PMS1003;14672;50.250;8.312;2022-07-21T08:22:02;17.67;17.67;8.00
27143;PMS1003;14672;50.250;8.312;2022-07-21T08:24:28;19.25;19.00;10.50
27143;PMS1003;14672;50.250;8.312;2022-07-21T08:26:53;18.67;18.67;10.00
27143;PMS1003;14672;50.250;8.312;2022-07-21T08:29:20;20.00;19.50;10.75
27143;PMS1003;14672;50.250;8.312;2022-07-21T08:31:46;19.00;19.00;10.00
27143;PMS1003;14672;50.250;8.312;2022-07-21T08:34:11;22.00;20.00;10.00
27143;PMS1003;14672;50.250;8.312;2022-07-21T08:36:37;19.00;18.00;9.00
27143;PMS1003;14672;50.250;8.312;2022-07-21T08:39:03;21.00;21.00;10.33
27143;PMS1003;14672;50.250;8.312;2022-07-21T08:41:30;19.00;18.00;9.67
27143;PMS1003;14672;50.250;8.312;2022-07-21T08:43:57;20.75;18.00;10.50
27143;PMS1003;14672;50.250;8.312;2022-07-21T08:46:23;19.33;17.33;10.67
27143;PMS1003;14672;50.250;8.312;2022-07-21T08:48:49;15.75;15.50;9.00
27143;PMS1003;14672;50.250;8.312;2022-07-21T08:51:16;16.50;16.50;9.00
27143;PMS1003;14672;50.250;8.312;2022-07-21T08:53:46;18.50;18.00;9.00
27143;PMS1003;14672;50.250;8.312;2022-07-21T08:56:13;16.25;16.25;9.25
27143;PMS1003;14672;50.250;8.312;2022-07-21T08:58:38;22.00;20.33;10.33
27143;PMS1003;14672;50.250;8.312;2022-07-21T09:01:04;15.75;15.50;8.00
27143;PMS1003;14672;50.250;8.312;2022-07-21T09:03:30;16.75;16.00;8.00
27143;PMS1003;14672;50.250;8.312;2022-07-21T09:11:23;16.25;16.25;9.50
27143;PMS1003;14672;50.250;8.312;2022-07-21T09:14:06;16.75;16.75;8.75
27143;PMS1003;14672;50.250;8.312;2022-07-21T09:16:53;19.25;17.50;9.25
27143;PMS1003;14672;50.250;8.312;2022-07-21T09:19:30;19.75;18.75;10.00
27143;PMS1003;14672;50.250;8.312;2022-07-21T09:22:02;18.25;17.75;9.00
27143;PMS1003;14672;50.250;8.312;2022-07-21T09:27:09;17.75;17.25;9.75
27143;PMS1003;14672;50.250;8.312;2022-07-21T09:29:42;21.25;18.75;11.00
27143;PMS1003;14672;50.250;8.312;2022-07-21T09:32:11;16.50;16.00;9.50
27143;PMS1003;14672;50.250;8.312;2022-07-21T09:34:40;15.50;15.50;8.50
27143;PMS1003;14672;50.250;8.312;2022-07-21T09:37:06;12.75;12.75;7.00
27143;PMS1003;14672;50.250;8.312;2022-07-21T09:39:52;16.00;15.75;9.00
27143;PMS1003;14672;50.250;8.312;2022-07-21T09:44:48;18.67;18.67;9.33
27143;PMS1003;14672;50.250;8.312;2022-07-21T09:47:18;17.00;16.00;9.50
27143;PMS1003;14672;50.250;8.312;2022-07-21T09:49:47;16.75;16.75;9.50
27143;PMS1003;14672;50.250;8.312;2022-07-21T09:52:21;17.25;16.25;10.00
27143;PMS1003;14672;50.250;8.312;2022-07-21T09:54:53;21.00;20.00;10.25
27143;PMS1003;14672;50.250;8.312;2022-07-21T09:57:21;19.75;18.75;9.00
27143;PMS1003;14672;50.250;8.312;2022-07-21T09:59:48;19.00;16.50;9.50
27143;PMS1003;14672;50.250;8.312;2022-07-21T10:04:59;20.75;17.25;9.00
27143;PMS1003;14672;50.250;8.312;2022-07-21T10:07:38;16.75;16.75;10.00
27143;PMS1003;14672;50.250;8.312;2022-07-21T10:10:07;17.50;17.25;9.00
27143;PMS1003;14672;50.250;8.312;2022-07-21T10:12:35;17.25;17.25;10.50
27143;PMS1003;14672;50.250;8.312;2022-07-21T10:15:01;13.75;13.75;7.50
27143;PMS1003;14672;50.250;8.312;2022-07-21T10:17:28;17.25;17.25;9.25
27143;PMS1003;14672;50.250;8.312;2022-07-21T10:22:30;16.75;16.25;8.00
27143;PMS1003;14672;50.250;8.312;2022-07-21T10:25:24;15.75;14.50;8.00
27143;PMS1003;14672;50.250;8.312;2022-07-21T10:30:42;16.25;16.25;8.75
27143;PMS1003;14672;50.250;8.312;2022-07-21T10:33:14;14.50;14.50;7.50
27143;PMS1003;14672;50.250;8.312;2022-07-21T10:35:46;15.75;15.50;6.50
27143;PMS1003;14672;50.250;8.312;2022-07-21T10:38:36;15.25;15.00;8.00
27143;PMS1003;14672;50.250;8.312;2022-07-21T10:41:03;13.25;13.25;6.75
27143;PMS1003;14672;50.250;8.312;2022-07-21T10:45:57;14.00;14.00;6.00
27143;PMS1003;14672;50.250;8.312;2022-07-21T10:51:12;13.75;13.50;6.00
27143;PMS1003;14672;50.250;8.312;2022-07-21T10:53:41;14.00;14.00;7.50
27143;PMS1003;14672;50.250;8.312;2022-07-21T10:56:30;16.25;13.75;8.00
27143;PMS1003;14672;50.250;8.312;2022-07-21T10:58:59;12.50;12.50;7.50
27143;PMS1003;14672;50.250;8.312;2022-07-21T11:01:24;14.00;13.67;6.33
27143;PMS1003;14672;50.250;8.312;2022-07-21T11:04:10;20.00;16.00;8.67
27143;PMS1003;14672;50.250;8.312;2022-07-21T11:06:44;10.00;10.00;5.00
27143;PMS1003;14672;50.250;8.312;2022-07-21T11:09:15;13.75;13.75;5.50
27143;PMS1003;14672;50.250;8.312;2022-07-21T11:14:36;12.00;12.00;6.00
27143;PMS1003;14672;50.250;8.312;2022-07-21T11:17:05;11.75;10.75;6.00
27143;PMS1003;14672;50.250;8.312;2022-07-21T11:24:46;11.75;11.75;5.00
27143;PMS1003;14672;50.250;8.312;2022-07-21T11:27:18;12.75;11.00;5.75
27143;PMS1003;14672;50.250;8.312;2022-07-21T11:29:47;12.00;9.75;4.00
27143;PMS1003;14672;50.250;8.312;2022-07-21T11:32:15;11.75;11.25;6.50
27143;PMS1003;14672;50.250;8.312;2022-07-21T11:37:26;13.00;13.00;6.00
27143;PMS1003;14672;50.250;8.312;2022-07-21T11:40:16;12.50;11.25;6.00
27143;PMS1003;14672;50.250;8.312;2022-07-21T11:42:45;14.00;14.00;6.00
27143;PMS1003;14672;50.250;8.312;2022-07-21T11:45:15;13.00;12.00;6.00
27143;PMS1003;14672;50.250;8.312;2022-07-21T11:47:42;10.00;10.00;5.75
27143;PMS1003;14672;50.250;8.312;2022-07-21T11:50:11;12.00;12.00;7.00
27143;PMS1003;14672;50.250;8.312;2022-07-21T11:52:40;13.00;12.75;7.00
27143;PMS1003;14672;50.250;8.312;2022-07-21T11:55:08;15.00;14.25;6.00
27143;PMS1003;14672;50.250;8.312;2022-07-21T11:57:41;15.50;14.25;7.00
27143;PMS1003;14672;50.250;8.312;2022-07-21T12:00:18;12.00;12.00;6.75
27143;PMS1003;14672;50.250;8.312;2022-07-21T12:03:04;14.50;13.25;6.50
27143;PMS1003;14672;50.250;8.312;2022-07-21T12:07:13;11.50;11.50;6.50
27143;PMS1003;14672;50.250;8.312;2022-07-21T12:11:03;13.25;13.25;7.50
27143;PMS1003;14672;50.250;8.312;2022-07-21T12:14:51;15.25;15.25;9.00
27143;PMS1003;14672;50.250;8.312;2022-07-21T12:19:44;16.50;15.00;6.75
27143;PMS1003;14672;50.250;8.312;2022-07-21T12:23:30;16.00;15.00;9.00
27143;PMS1003;14672;50.250;8.312;2022-07-21T12:27:44;18.25;18.25;7.25
27143;PMS1003;14672;50.250;8.312;2022-07-21T12:31:08;16.75;15.75;8.00
27143;PMS1003;14672;50.250;8.312;2022-07-21T12:33:45;13.00;13.00;7.00
27143;PMS1003;14672;50.250;8.312;2022-07-21T12:36:14;14.25;13.75;7.00
27143;PMS1003;14672;50.250;8.312;2022-07-21T12:38:46;17.00;17.00;9.00
27143;PMS1003;14672;50.250;8.312;2022-07-21T12:42:30;15.25;15.00;8.00
27143;PMS1003;14672;50.250;8.312;2022-07-21T13:06:40;21.00;20.00;10.50
27143;PMS1003;14672;50.250;8.312;2022-07-21T13:09:06;17.25;16.25;8.00
27143;PMS1003;14672;50.250;8.312;2022-07-21T13:24:02;16.50;16.00;9.25
27143;PMS1003;14672;50.250;8.312;2022-07-21T13:44:29;18.25;18.00;9.25
27143;PMS1003;14672;50.250;8.312;2022-07-21T13:53:00;20.75;20.00;9.00
27143;PMS1003;14672;50.250;8.312;2022-07-21T14:14:35;15.50;14.00;8.25
27143;PMS1003;14672;50.250;8.312;2022-07-21T14:18:03;17.75;16.50;8.50
27143;PMS1003;14672;50.250;8.312;2022-07-21T14:20:30;17.75;17.75;9.00
27143;PMS1003;14672;50.250;8.312;2022-07-21T14:24:05;19.75;19.00;9.75
27143;PMS1003;14672;50.250;8.312;2022-07-21T14:39:56;17.25;16.50;10.00
27143;PMS1003;14672;50.250;8.312;2022-07-21T14:43:54;17.25;16.75;9.00
27143;PMS1003;14672;50.250;8.312;2022-07-21T14:50:55;18.00;18.00;8.50
27143;PMS1003;14672;50.250;8.312;2022-07-21T15:02:58;15.75;15.75;9.50
27143;PMS1003;14672;50.250;8.312;2022-07-21T15:06:18;14.25;14.25;9.00
27143;PMS1003;14672;50.250;8.312;2022-07-21T15:08:44;16.33;16.33;8.33
27143;PMS1003;14672;50.250;8.312;2022-07-21T15:11:11;17.00;17.00;9.50
27143;PMS1003;14672;50.250;8.312;2022-07-21T15:13:37;17.33;17.33;9.00
27143;PMS1003;14672;50.250;8.312;2022-07-21T15:16:03;17.00;17.00;9.00
27143;PMS1003;14672;50.250;8.312;2022-07-21T15:18:29;17.50;16.50;9.00
27143;PMS1003;14672;50.250;8.312;2022-07-21T15:20:55;19.33;19.33;9.67
27143;PMS1003;14672;50.250;8.312;2022-07-21T15:23:21;19.00;18.50;10.50
27143;PMS1003;14672;50.250;8.312;2022-07-21T15:25:47;16.00;15.67;9.00
27143;PMS1003;14672;50.250;8.312;2022-07-21T15:28:13;17.00;16.67;10.00
27143;PMS1003;14672;50.250;8.312;2022-07-21T15:30:38;21.00;20.00;9.00
27143;PMS1003;14672;50.250;8.312;2022-07-21T15:33:04;16.33;16.33;10.00
27143;PMS1003;14672;50.250;8.312;2022-07-21T15:35:30;20.00;19.00;10.67
27143;PMS1003;14672;50.250;8.312;2022-07-21T15:37:56;18.00;16.67;8.00
27143;PMS1003;14672;50.250;8.312;2022-07-21T15:40:22;18.00;17.67;10.33
27143;PMS1003;14672;50.250;8.312;2022-07-21T15:42:48;19.25;18.75;10.50
27143;PMS1003;14672;50.250;8.312;2022-07-21T15:45:14;18.00;18.00;9.75
27143;PMS1003;14672;50.250;8.312;2022-07-21T15:47:40;16.33;15.33;8.00
27143;PMS1003;14672;50.250;8.312;2022-07-21T15:50:06;21.33;19.67;12.00
27143;PMS1003;14672;50.250;8.312;2022-07-21T15:52:34;20.25;20.25;11.50
27143;PMS1003;14672;50.250;8.312;2022-07-21T15:55:02;17.25;17.25;8.50
27143;PMS1003;14672;50.250;8.312;2022-07-21T15:57:31;21.25;20.00;11.00
27143;PMS1003;14672;50.250;8.312;2022-07-21T15:59:57;19.50;16.75;10.00
27143;PMS1003;14672;50.250;8.312;2022-07-21T16:02:24;17.00;17.00;9.75
27143;PMS1003;14672;50.250;8.312;2022-07-21T16:04:50;20.00;19.00;10.75
27143;PMS1003;14672;50.250;8.312;2022-07-21T16:07:16;20.75;20.75;10.75
27143;PMS1003;14672;50.250;8.312;2022-07-21T16:09:43;21.75;21.75;12.00
27143;PMS1003;14672;50.250;8.312;2022-07-21T16:12:09;24.75;24.75;19.50
27143;PMS1003;14672;50.250;8.312;2022-07-21T16:14:37;18.25;18.25;9.50
27143;PMS1003;14672;50.250;8.312;2022-07-21T16:17:04;19.00;18.75;12.75
27143;PMS1003;14672;50.250;8.312;2022-07-21T16:19:30;18.75;18.75;12.50
27143;PMS1003;14672;50.250;8.312;2022-07-21T16:21:56;21.67;20.33;11.00
27143;PMS1003;14672;50.250;8.312;2022-07-21T16:24:23;20.50;20.00;12.00
27143;PMS1003;14672;50.250;8.312;2022-07-21T16:26:49;18.50;17.00;10.25
27143;PMS1003;14672;50.250;8.312;2022-07-21T16:29:16;18.25;18.25;10.00
27143;PMS1003;14672;50.250;8.312;2022-07-21T16:31:42;18.50;17.75;9.75
27143;PMS1003;14672;50.250;8.312;2022-07-21T16:34:08;21.33;19.67;10.33